Time;durP1;ratioP1;P1;durP2;ratioP2;P2;SDS_P1;SDS_P2;PMS_P1;PMS_P2;Temp;Humidity;BMP_temperature;BMP_pressure;BME280_temperature;BME280_humidity;BME280_pressure;Samples;Min_cycle;Max_cycle;Signal;HPM_P1;HPM_P2
2022/08/19 00:01:57;;;;;;;23.23;16.40;;;19.10;99.90;;;;;;5001481;28;20208;-79
2022/08/19 00:04:29;;;;;;;22.45;17.42;;;19.10;99.90;;;;;;4996600;28;20227;-80
2022/08/19 00:06:57;;;;;;;19.00;14.52;;;19.00;99.90;;;;;;4989197;28;20222;-81
2022/08/19 00:09:24;;;;;;;22.73;16.40;;;18.90;99.90;;;;;;5002056;28;20207;-81
2022/08/19 00:11:56;;;;;;;21.75;16.83;;;19.00;99.90;;;;;;4986371;28;20222;-80
2022/08/19 00:14:24;;;;;;;19.45;14.45;;;18.90;99.90;;;;;;4988920;28;20271;-82
2022/08/19 00:16:53;;;;;;;25.60;17.55;;;18.90;99.90;;;;;;4999765;28;20196;-80
2022/08/19 00:19:22;;;;;;;23.27;17.42;;;18.90;99.90;;;;;;4983279;28;20215;-81
2022/08/19 00:21:49;;;;;;;21.13;16.52;;;18.80;99.90;;;;;;4978442;28;20227;-80
2022/08/19 00:24:22;;;;;;;20.58;15.10;;;18.80;99.90;;;;;;5007363;28;20221;-81
2022/08/19 00:26:52;;;;;;;22.48;16.95;;;18.70;99.90;;;;;;4998219;28;20218;-81
2022/08/19 00:29:21;;;;;;;23.95;17.30;;;18.70;99.90;;;;;;4977947;28;20203;-81
2022/08/19 00:31:53;;;;;;;26.13;17.20;;;18.70;99.90;;;;;;4987182;28;20265;-80
2022/08/19 00:34:21;;;;;;;22.60;16.83;;;18.60;99.90;;;;;;5028643;28;20205;-80
2022/08/19 00:36:49;;;;;;;25.73;17.63;;;18.50;99.90;;;;;;5002927;28;20210;-81
2022/08/19 00:39:18;;;;;;;24.23;16.85;;;18.50;99.90;;;;;;5027288;28;20202;-80
2022/08/19 00:41:49;;;;;;;25.52;18.00;;;18.50;99.90;;;;;;5021396;28;20214;-80
2022/08/19 00:44:20;;;;;;;25.67;17.50;;;18.50;99.90;;;;;;5020528;28;20241;-80
2022/08/19 00:46:54;;;;;;;24.80;18.50;;;18.50;99.90;;;;;;5016620;28;20198;-81
2022/08/19 00:49:41;;;;;;;23.80;17.83;;;18.50;99.90;;;;;;5017879;28;20241;-80
2022/08/19 00:52:33;;;;;;;22.25;16.77;;;18.40;99.90;;;;;;5020220;28;20229;-81
2022/08/19 00:55:05;;;;;;;24.95;17.77;;;18.40;99.90;;;;;;5013196;28;20230;-81
2022/08/19 00:57:41;;;;;;;25.75;17.60;;;18.40;99.90;;;;;;5014179;28;20214;-80
2022/08/19 01:00:18;;;;;;;24.95;17.40;;;18.40;99.90;;;;;;5020723;28;20775;-79
2022/08/19 01:02:47;;;;;;;27.48;18.92;;;18.30;99.90;;;;;;5032300;28;20207;-80
2022/08/19 01:05:22;;;;;;;29.40;18.65;;;18.40;99.90;;;;;;5020295;28;20257;-81
2022/08/19 01:07:50;;;;;;;24.27;17.38;;;18.30;99.90;;;;;;5020887;28;20218;-79
2022/08/19 01:10:22;;;;;;;24.85;16.88;;;18.30;99.90;;;;;;5016479;28;20203;-80
2022/08/19 01:12:50;;;;;;;26.30;18.02;;;18.20;99.90;;;;;;5020459;28;20206;-80
2022/08/19 01:15:24;;;;;;;23.05;17.50;;;18.20;99.90;;;;;;5021481;28;20210;-80
2022/08/19 01:17:53;;;;;;;25.33;17.88;;;18.20;99.90;;;;;;5021623;28;20233;-81
2022/08/19 01:20:24;;;;;;;26.10;18.95;;;18.30;99.90;;;;;;5020429;28;20286;-79
2022/08/19 01:22:57;;;;;;;29.25;19.52;;;18.10;99.90;;;;;;5003432;28;20202;-80
2022/08/19 01:25:38;;;;;;;26.30;19.15;;;18.20;99.90;;;;;;5020487;28;20256;-80
2022/08/19 01:28:15;;;;;;;27.77;19.88;;;18.10;99.90;;;;;;5013303;28;20199;-79
2022/08/19 01:30:46;;;;;;;26.50;18.88;;;18.10;99.90;;;;;;5020638;28;20226;-81
2022/08/19 01:33:17;;;;;;;27.80;18.67;;;18.10;99.90;;;;;;5019895;28;20621;-82
2022/08/19 01:35:44;;;;;;;32.10;19.50;;;18.10;99.90;;;;;;5021902;28;20213;-81
2022/08/19 01:38:25;;;;;;;26.85;19.15;;;18.00;99.90;;;;;;5019983;28;20221;-79
2022/08/19 01:40:54;;;;;;;27.80;18.55;;;18.00;99.90;;;;;;5020078;28;20205;-78
2022/08/19 01:43:22;;;;;;;24.27;17.13;;;18.00;99.90;;;;;;5020648;28;20229;-81
2022/08/19 01:45:50;;;;;;;26.70;19.25;;;18.00;99.90;;;;;;5002396;28;20234;-81
2022/08/19 01:48:18;;;;;;;26.38;18.52;;;18.00;99.90;;;;;;5020441;28;20214;-77
2022/08/19 01:50:48;;;;;;;24.83;18.55;;;17.90;99.90;;;;;;5019480;28;20214;-79
2022/08/19 01:53:16;;;;;;;27.02;18.48;;;17.90;99.90;;;;;;5020408;28;20226;-79
2022/08/19 01:55:43;;;;;;;26.73;18.90;;;18.00;99.90;;;;;;5019694;28;20203;-79
2022/08/19 01:58:20;;;;;;;24.67;17.92;;;18.00;99.90;;;;;;5020007;28;20210;-82
2022/08/19 02:00:48;;;;;;;21.90;16.65;;;18.00;99.90;;;;;;5009844;28;20206;-79
2022/08/19 02:03:15;;;;;;;24.80;18.88;;;18.10;99.90;;;;;;5020262;28;20202;-82
2022/08/19 02:05:43;;;;;;;26.05;17.25;;;18.10;99.90;;;;;;5019740;28;20291;-80
2022/08/19 02:08:11;;;;;;;23.15;16.52;;;18.10;99.90;;;;;;5019896;28;20198;-80
2022/08/19 02:10:46;;;;;;;17.25;13.98;;;18.20;99.90;;;;;;5019628;28;20210;-78
2022/08/19 02:13:13;;;;;;;21.75;15.55;;;18.20;99.90;;;;;;5019509;28;20214;-79
2022/08/19 02:15:41;;;;;;;20.77;16.42;;;18.20;99.90;;;;;;5022907;28;20222;-79
2022/08/19 02:18:08;;;;;;;24.65;16.70;;;18.20;99.90;;;;;;5019297;28;20234;-80
2022/08/19 02:20:37;;;;;;;20.48;15.50;;;18.10;99.90;;;;;;5001157;28;20199;-81
2022/08/19 02:23:04;;;;;;;20.55;14.85;;;18.10;99.90;;;;;;5019507;28;20214;-78
2022/08/19 02:25:42;;;;;;;22.50;16.30;;;18.10;99.90;;;;;;5019137;28;20240;-75
2022/08/19 02:28:09;;;;;;;20.83;15.80;;;18.00;99.90;;;;;;5023642;28;20194;-80
2022/08/19 02:30:36;;;;;;;21.88;14.70;;;18.00;99.90;;;;;;5003658;28;20215;-80
2022/08/19 02:33:03;;;;;;;20.35;15.05;;;18.00;99.90;;;;;;5029733;28;20230;-76
2022/08/19 02:35:36;;;;;;;19.70;14.60;;;18.00;99.90;;;;;;5019424;28;20203;-82
2022/08/19 02:40:57;;;;;;;21.23;14.98;;;17.90;99.90;;;;;;5020186;28;20210;-78
2022/08/19 02:43:25;;;;;;;19.77;14.82;;;17.90;99.90;;;;;;5003692;28;20666;-81
2022/08/19 02:45:53;;;;;;;18.67;14.27;;;17.90;99.90;;;;;;5001897;28;20218;-81
2022/08/19 02:48:24;;;;;;;20.13;15.05;;;17.90;99.90;;;;;;5019660;28;20206;-78
2022/08/19 02:50:54;;;;;;;20.58;14.75;;;17.80;99.90;;;;;;5019710;28;20301;-80
2022/08/19 02:53:26;;;;;;;20.73;14.52;;;17.80;99.90;;;;;;5018120;28;20224;-79
2022/08/19 02:55:54;;;;;;;19.23;14.15;;;17.80;99.90;;;;;;4979099;28;20210;-80
2022/08/19 02:58:22;;;;;;;20.88;14.68;;;17.80;99.90;;;;;;5019979;28;20193;-80
2022/08/19 03:00:53;;;;;;;18.05;13.45;;;17.80;99.90;;;;;;5003367;28;20210;-80
2022/08/19 03:03:21;;;;;;;19.40;13.98;;;17.70;99.90;;;;;;5019699;28;20214;-80
2022/08/19 03:06:14;;;;;;;24.20;15.52;;;17.80;99.90;;;;;;5011801;28;20586;-80
2022/08/19 03:08:44;;;;;;;19.23;13.82;;;17.80;99.90;;;;;;5022931;28;20202;-79
2022/08/19 03:11:18;;;;;;;21.90;15.93;;;17.80;99.90;;;;;;5018657;28;20210;-81
2022/08/19 03:13:48;;;;;;;19.80;14.75;;;17.80;99.90;;;;;;5019672;28;20266;-81
2022/08/19 03:16:16;;;;;;;18.83;14.80;;;17.90;99.90;;;;;;5020227;28;20349;-78
2022/08/19 03:18:43;;;;;;;21.80;15.25;;;17.90;99.90;;;;;;5018505;28;20289;-79
2022/08/19 03:21:17;;;;;;;20.35;15.15;;;18.00;99.90;;;;;;5019960;28;20198;-79
2022/08/19 03:23:45;;;;;;;23.10;15.60;;;18.00;99.90;;;;;;5019200;28;20194;-81
2022/08/19 03:26:19;;;;;;;22.23;15.48;;;18.00;99.90;;;;;;5020268;28;20229;-81
2022/08/19 03:28:49;;;;;;;19.20;14.27;;;17.90;99.90;;;;;;5017879;28;20197;-79
2022/08/19 03:31:25;;;;;;;19.08;13.57;;;18.00;99.90;;;;;;4998224;28;20210;-79
2022/08/19 03:34:14;;;;;;;18.70;13.30;;;17.80;99.90;;;;;;4980549;28;20226;-81
2022/08/19 03:36:41;;;;;;;20.80;12.93;;;17.80;99.90;;;;;;5001232;28;20192;-78
2022/08/19 03:39:10;;;;;;;18.13;13.15;;;17.70;99.90;;;;;;4981942;28;21039;-79
2022/08/19 03:41:40;;;;;;;21.83;12.10;;;17.70;99.90;;;;;;4983468;28;20233;-80
2022/08/19 03:44:20;;;;;;;21.05;13.13;;;17.60;99.90;;;;;;4982176;28;20213;-81
2022/08/19 03:46:51;;;;;;;17.23;12.32;;;17.60;99.90;;;;;;4984269;28;20257;-81
2022/08/19 03:49:22;;;;;;;18.88;12.55;;;17.50;99.90;;;;;;4995028;28;20247;-78
2022/08/19 03:51:56;;;;;;;19.90;13.77;;;17.50;99.90;;;;;;4989224;28;20275;-81
2022/08/19 03:54:24;;;;;;;22.05;13.35;;;17.50;99.90;;;;;;4997314;28;20254;-81
2022/08/19 03:56:54;;;;;;;20.10;13.95;;;17.40;99.90;;;;;;4998609;28;20217;-80
2022/08/19 03:59:26;;;;;;;22.23;14.20;;;17.40;99.90;;;;;;4998233;28;20211;-78
2022/08/19 04:01:58;;;;;;;19.17;12.95;;;17.40;99.90;;;;;;5002802;28;20273;-79
2022/08/19 04:04:26;;;;;;;18.67;12.73;;;17.40;99.90;;;;;;5010609;28;20238;-80
2022/08/19 04:06:56;;;;;;;19.67;13.13;;;17.40;99.90;;;;;;4985484;28;20203;-82
2022/08/19 04:09:23;;;;;;;21.10;13.88;;;17.40;99.90;;;;;;4991935;28;20302;-80
2022/08/19 04:11:55;;;;;;;20.08;13.43;;;17.40;99.90;;;;;;5013965;28;20256;-80
2022/08/19 04:14:26;;;;;;;20.52;13.02;;;17.40;99.90;;;;;;4984318;28;20702;-77
2022/08/19 04:16:54;;;;;;;18.75;12.52;;;17.50;99.90;;;;;;5008968;28;20285;-78
2022/08/19 04:19:22;;;;;;;20.00;13.27;;;17.40;99.90;;;;;;5009068;28;20207;-79
2022/08/19 04:21:51;;;;;;;17.40;12.50;;;17.40;99.90;;;;;;5008795;28;20207;-79
2022/08/19 04:24:20;;;;;;;21.27;12.83;;;17.40;99.90;;;;;;5008946;28;20576;-80
2022/08/19 04:26:47;;;;;;;18.55;12.85;;;17.40;99.90;;;;;;4985163;28;20750;-80
2022/08/19 04:29:21;;;;;;;20.00;14.23;;;17.40;99.90;;;;;;5004594;28;20583;-80
2022/08/19 04:31:50;;;;;;;19.60;12.05;;;17.30;99.90;;;;;;5010078;28;20238;-80
2022/08/19 04:34:24;;;;;;;17.67;12.10;;;17.30;99.90;;;;;;5007287;28;20268;-79
2022/08/19 04:36:53;;;;;;;18.10;12.53;;;17.30;99.90;;;;;;5016251;28;20209;-80
2022/08/19 04:42:38;;;;;;;18.00;13.23;;;17.30;99.90;;;;;;5005595;28;20233;-77
2022/08/19 04:45:03;;;;;;;16.97;12.40;;;17.20;99.90;;;;;;5020616;28;20249;-80
2022/08/19 04:47:32;;;;;;;18.43;12.97;;;17.10;99.90;;;;;;5019194;28;20211;-81
2022/08/19 04:50:18;;;;;;;19.47;13.20;;;17.10;99.90;;;;;;5024322;28;20241;-77
2022/08/19 04:52:45;;;;;;;18.20;13.27;;;17.10;99.90;;;;;;5004545;28;20205;-81
2022/08/19 04:55:13;;;;;;;18.57;12.87;;;17.10;99.90;;;;;;4992034;28;20292;-81
2022/08/19 04:57:41;;;;;;;20.63;13.27;;;17.10;99.90;;;;;;5006930;28;20213;-80
2022/08/19 05:00:09;;;;;;;20.20;14.50;;;17.10;99.90;;;;;;5021155;28;20208;-80
2022/08/19 05:02:37;;;;;;;24.65;14.88;;;17.10;99.90;;;;;;5001930;28;20230;-78
2022/08/19 05:05:06;;;;;;;22.03;14.70;;;17.10;99.90;;;;;;5021286;28;20623;-81
2022/08/19 05:07:33;;;;;;;19.87;14.63;;;17.10;99.90;;;;;;5019078;28;20218;-80
2022/08/19 05:10:02;;;;;;;19.00;13.83;;;17.10;99.90;;;;;;5020924;28;20329;-81
2022/08/19 05:12:29;;;;;;;18.00;13.17;;;17.10;99.90;;;;;;5004528;28;20639;-80
2022/08/19 05:14:58;;;;;;;20.27;14.90;;;17.10;99.90;;;;;;5025774;28;20301;-80
2022/08/19 05:17:26;;;;;;;22.37;13.63;;;17.10;99.90;;;;;;5022530;28;20270;-81
2022/08/19 05:22:54;;;;;;;23.13;15.73;;;17.30;99.90;;;;;;4997148;28;20710;-80
2022/08/19 05:25:22;;;;;;;22.73;14.97;;;17.20;99.90;;;;;;5009035;28;20296;-80
2022/08/19 05:27:50;;;;;;;23.90;15.90;;;17.30;99.90;;;;;;5021702;28;20215;-81
2022/08/19 05:30:17;;;;;;;23.67;14.97;;;17.30;99.90;;;;;;5020400;28;20204;-83
2022/08/19 05:33:11;;;;;;;21.03;14.20;;;17.40;99.90;;;;;;5018353;28;20237;-82
2022/08/19 05:35:40;;;;;;;20.17;13.88;;;17.50;99.90;;;;;;5024208;28;20203;-81
2022/08/19 05:38:08;;;;;;;19.13;13.57;;;17.50;99.90;;;;;;5004057;28;20229;-82
2022/08/19 05:40:35;;;;;;;19.83;14.07;;;17.60;99.90;;;;;;5017780;28;20237;-82
2022/08/19 05:43:04;;;;;;;21.70;14.45;;;17.60;99.90;;;;;;5013789;28;20218;-81
2022/08/19 05:45:31;;;;;;;19.73;14.27;;;17.70;99.90;;;;;;5015999;28;20583;-81
2022/08/19 05:47:59;;;;;;;20.55;14.40;;;17.70;99.90;;;;;;4998545;28;21003;-79
2022/08/19 05:50:29;;;;;;;19.48;14.73;;;17.80;99.90;;;;;;4996480;28;20219;-79
2022/08/19 05:52:58;;;;;;;23.23;16.10;;;17.90;99.90;;;;;;5017189;28;20202;-79
2022/08/19 05:55:25;;;;;;;25.73;17.77;;;18.00;99.90;;;;;;5013883;28;20210;-80
2022/08/19 05:57:52;;;;;;;24.20;17.73;;;18.00;99.90;;;;;;5013785;28;20214;-79
2022/08/19 06:00:19;;;;;;;26.73;19.35;;;18.10;99.90;;;;;;5013398;28;20297;-79
2022/08/19 06:02:50;;;;;;;29.25;20.23;;;18.20;99.90;;;;;;5005938;28;20603;-78
2022/08/19 06:05:19;;;;;;;30.17;19.55;;;18.30;99.90;;;;;;5013721;28;20729;-79
2022/08/19 06:07:46;;;;;;;30.00;20.17;;;18.40;99.90;;;;;;5014867;28;20210;-79
2022/08/19 06:10:13;;;;;;;32.42;21.77;;;18.50;99.90;;;;;;5012176;28;20209;-79
2022/08/19 06:12:40;;;;;;;31.45;21.02;;;18.60;99.90;;;;;;5016799;28;20209;-81
2022/08/19 06:15:11;;;;;;;31.77;20.85;;;18.70;99.90;;;;;;4997608;28;20716;-79
2022/08/19 06:17:50;;;;;;;24.83;17.88;;;19.20;99.90;;;;;;4992408;28;20198;-79
2022/08/19 06:20:40;;;;;;;25.73;18.58;;;20.00;99.90;;;;;;4983196;28;20202;-80
2022/08/19 06:23:28;;;;;;;20.85;16.27;;;21.50;99.90;;;;;;5001110;28;20971;-79
2022/08/19 06:26:28;;;;;;;23.38;16.25;;;22.70;99.90;;;;;;5022617;28;20281;-78
2022/08/19 06:29:23;;;;;;;21.35;16.08;;;23.80;99.90;;;;;;4976604;28;20211;-79
2022/08/19 06:33:02;;;;;;;19.30;14.68;;;24.90;99.90;;;;;;4991601;28;20234;-80
2022/08/19 06:36:24;;;;;;;;;;;;;;;;;;;;;
2022/08/19 06:39:47;;;;;;;;;;;;;;;;;;;;;
2022/08/19 06:45:18;;;;;;;20.42;15.30;;;27.90;99.90;;;;;;5120095;22;20265;-79
2022/08/19 06:47:54;;;;;;;17.33;15.40;;;28.30;99.90;;;;;;4984005;28;20207;-78
2022/08/19 06:50:21;;;;;;;19.23;16.38;;;28.70;99.90;;;;;;4985854;28;20210;-78
2022/08/19 06:52:50;;;;;;;17.15;15.30;;;29.00;99.90;;;;;;5003592;28;20225;-79
2022/08/19 06:55:18;;;;;;;17.98;14.98;;;29.30;99.90;;;;;;5002641;28;20257;-79
2022/08/19 06:57:46;;;;;;;16.85;13.73;;;29.70;99.90;;;;;;5002969;28;20206;-78
2022/08/19 07:00:13;;;;;;;16.58;13.75;;;29.90;99.90;;;;;;4984863;28;20198;-80
2022/08/19 07:02:43;;;;;;;14.13;12.73;;;29.90;99.90;;;;;;4998462;28;20209;-80
2022/08/19 07:05:24;;;;;;;16.25;14.27;;;30.00;99.90;;;;;;4996559;28;20506;-83
2022/08/19 07:07:51;;;;;;;19.88;14.40;;;29.80;99.90;;;;;;4996846;28;20241;-80
2022/08/19 07:10:50;;;;;;;18.17;14.43;;;30.00;99.90;;;;;;4997824;28;20326;-80
2022/08/19 07:13:25;;;;;;;17.83;15.35;;;30.10;99.90;;;;;;4980121;28;20296;-81
2022/08/19 07:19:57;;;;;;;21.52;16.52;;;30.10;99.90;;;;;;4998403;28;20281;-80
2022/08/19 07:23:14;;;;;;;;;;;;;;;;;;;;;
2022/08/19 07:29:10;;;;;;;24.90;17.92;;;30.40;99.90;;;;;;5069634;23;20223;-78
2022/08/19 07:32:08;;;;;;;27.70;21.70;;;30.60;99.90;;;;;;4978586;28;20523;-79
2022/08/19 07:35:29;;;;;;;;;;;;;;;;;;;;;
2022/08/19 07:38:11;;;;;;;24.85;20.65;;;30.60;99.90;;;;;;5000102;28;20211;-80
2022/08/19 07:40:39;;;;;;;26.73;20.95;;;30.70;99.90;;;;;;4980502;28;20203;-80
2022/08/19 07:43:06;;;;;;;28.13;21.83;;;30.80;99.90;;;;;;4987821;28;20201;-80
2022/08/19 07:45:47;;;;;;;30.02;21.88;;;31.10;99.90;;;;;;4986834;28;20309;-81
2022/08/19 07:49:21;;;;;;;30.77;21.90;;;31.10;99.90;;;;;;5004154;28;20212;-81
2022/08/19 07:52:19;;;;;;;26.40;20.88;;;31.00;99.90;;;;;;4993977;28;20218;-80
2022/08/19 07:55:12;;;;;;;34.63;24.40;;;30.50;99.90;;;;;;4987047;28;20467;-81
2022/08/19 07:58:27;;;;;;;29.80;22.92;;;30.50;99.90;;;;;;4991107;28;20206;-80
2022/08/19 08:01:01;;;;;;;31.05;24.20;;;30.80;99.90;;;;;;4997524;28;20214;-81
2022/08/19 08:09:21;;;;;;;32.10;24.95;;;30.60;99.90;;;;;;4996007;28;20273;-79
2022/08/19 08:12:28;;;;;;;30.52;23.40;;;30.50;99.90;;;;;;4990566;28;20329;-85
2022/08/19 08:18:18;;;;;;;35.53;27.02;;;30.30;99.90;;;;;;853512;26;20521;-81
2022/08/19 08:21:22;;;;;;;36.03;26.45;;;30.30;99.90;;;;;;4971140;28;20219;-80
2022/08/19 08:23:49;;;;;;;34.55;27.42;;;30.60;99.90;;;;;;4980618;28;20218;-81
2022/08/19 08:26:20;;;;;;;34.22;26.08;;;30.80;99.90;;;;;;4971706;28;20233;-82
2022/08/19 08:28:47;;;;;;;34.28;25.40;;;30.90;99.90;;;;;;4956859;28;20266;-82
2022/08/19 08:31:15;;;;;;;34.03;27.23;;;31.10;99.90;;;;;;4985897;28;20364;-81
2022/08/19 08:33:43;;;;;;;37.00;28.40;;;31.20;99.90;;;;;;4987868;28;20600;-82
2022/08/19 08:36:11;;;;;;;40.40;29.90;;;31.30;99.90;;;;;;4984953;28;20203;-80
2022/08/19 08:38:38;;;;;;;42.20;30.65;;;31.20;99.90;;;;;;4986948;28;20277;-80
2022/08/19 08:41:31;;;;;;;45.63;31.23;;;30.90;99.90;;;;;;4971991;28;20721;-81
2022/08/19 08:43:59;;;;;;;45.88;30.58;;;30.80;99.90;;;;;;4990017;28;20756;-81
2022/08/19 08:46:45;;;;;;;40.47;29.27;;;30.70;99.90;;;;;;4988508;28;20470;-80
2022/08/19 08:49:29;;;;;;;43.00;28.90;;;30.60;99.90;;;;;;4968577;28;20229;-80
2022/08/19 08:52:25;;;;;;;42.30;29.73;;;30.60;99.90;;;;;;4985345;28;20215;-84
2022/08/19 08:55:03;;;;;;;41.90;31.30;;;30.70;99.90;;;;;;4974108;28;20282;-84
2022/08/19 08:57:47;;;;;;;38.65;27.92;;;30.70;99.90;;;;;;4984889;28;20210;-85
2022/08/19 09:00:23;;;;;;;33.15;24.45;;;30.70;99.90;;;;;;4988391;28;20243;-84
2022/08/19 09:02:50;;;;;;;33.63;24.83;;;30.90;99.90;;;;;;4972506;28;20230;-81
2022/08/19 09:05:20;;;;;;;37.05;25.10;;;30.80;99.90;;;;;;4989000;28;20211;-81
2022/08/19 09:08:31;;;;;;;39.00;26.75;;;30.50;99.90;;;;;;4982050;28;20550;-80
2022/08/19 09:10:58;;;;;;;35.17;24.75;;;30.30;99.90;;;;;;4969751;28;20215;-79
2022/08/19 09:13:49;;;;;;;30.85;23.10;;;30.40;99.90;;;;;;4988924;28;20199;-78
2022/08/19 09:16:20;;;;;;;30.45;22.60;;;30.50;99.90;;;;;;4981235;28;20623;-79
2022/08/19 09:19:01;;;;;;;27.48;20.90;;;30.40;99.90;;;;;;4972309;28;20238;-81
2022/08/19 09:21:28;;;;;;;29.05;22.27;;;30.60;99.90;;;;;;4971314;28;20203;-82
2022/08/19 09:23:58;;;;;;;30.77;22.20;;;30.70;99.90;;;;;;4988628;28;20651;-79
2022/08/19 09:26:26;;;;;;;28.88;21.75;;;30.70;99.90;;;;;;4987535;28;20227;-80
2022/08/19 09:29:13;;;;;;;30.10;22.88;;;30.50;99.90;;;;;;4971285;28;20293;-81
2022/08/19 09:31:40;;;;;;;28.27;20.98;;;30.40;99.90;;;;;;4956146;28;20203;-81
2022/08/19 09:34:08;;;;;;;27.90;20.50;;;30.50;99.90;;;;;;4986684;28;20206;-81
2022/08/19 09:36:54;;;;;;;28.60;21.17;;;30.60;99.90;;;;;;4987094;28;20222;-80
2022/08/19 09:39:22;;;;;;;27.58;21.00;;;30.70;99.90;;;;;;4970082;28;20241;-81
2022/08/19 09:41:52;;;;;;;27.48;21.30;;;30.70;99.90;;;;;;4969716;28;20211;-81
2022/08/19 09:44:22;;;;;;;26.98;21.00;;;30.70;99.90;;;;;;4985994;28;20199;-83
2022/08/19 09:46:49;;;;;;;31.58;22.10;;;30.40;99.90;;;;;;4989775;28;20293;-80
2022/08/19 09:49:17;;;;;;;27.30;20.30;;;30.00;99.90;;;;;;4989165;28;20250;-81
2022/08/19 09:51:47;;;;;;;27.27;20.40;;;30.00;99.90;;;;;;4989998;28;20207;-82
2022/08/19 09:54:18;;;;;;;21.65;16.92;;;30.10;99.90;;;;;;4974542;28;20513;-82
2022/08/19 09:56:52;;;;;;;20.58;17.05;;;30.10;99.90;;;;;;4983280;28;20211;-84
2022/08/19 09:59:19;;;;;;;21.80;16.95;;;30.10;99.90;;;;;;4988693;28;20242;-82
2022/08/19 10:01:46;;;;;;;28.08;20.73;;;30.00;99.90;;;;;;4988174;28;20329;-82
2022/08/19 10:04:13;;;;;;;21.33;17.55;;;29.70;99.90;;;;;;4987768;28;20238;-84
2022/08/19 10:06:50;;;;;;;22.10;17.73;;;29.50;99.90;;;;;;4989525;28;20238;-83
2022/08/19 10:09:20;;;;;;;24.63;19.02;;;29.50;99.90;;;;;;4972516;28;20656;-82
2022/08/19 10:12:03;;;;;;;22.90;16.73;;;29.70;99.90;;;;;;4970139;28;20261;-83
2022/08/19 10:14:31;;;;;;;27.20;20.70;;;29.90;99.90;;;;;;4963028;28;20206;-84
2022/08/19 10:17:02;;;;;;;27.08;20.02;;;29.80;99.90;;;;;;4973611;28;20290;-83
2022/08/19 10:19:50;;;;;;;29.20;22.60;;;29.70;99.90;;;;;;4972386;28;20282;-83
2022/08/19 10:22:22;;;;;;;29.02;21.67;;;29.50;99.90;;;;;;4980475;28;20203;-82
2022/08/19 10:24:52;;;;;;;26.25;19.70;;;29.40;99.90;;;;;;4981250;28;20234;-82
2022/08/19 10:27:19;;;;;;;19.65;14.65;;;29.20;99.90;;;;;;4980258;28;20255;-83
2022/08/19 10:29:47;;;;;;;19.20;14.48;;;29.20;99.90;;;;;;4985100;28;20269;-83
2022/08/19 10:32:14;;;;;;;24.55;17.42;;;29.20;99.90;;;;;;4989055;28;20577;-83
2022/08/19 10:34:42;;;;;;;17.90;13.35;;;29.30;99.90;;;;;;4972477;28;20215;-83
2022/08/19 10:37:15;;;;;;;19.67;12.65;;;29.40;99.90;;;;;;4989003;28;20210;-81
2022/08/19 10:39:54;;;;;;;19.95;14.77;;;29.40;99.90;;;;;;4989005;28;20655;-83
2022/08/19 10:42:22;;;;;;;19.77;14.13;;;29.50;99.90;;;;;;4987938;28;20215;-81
2022/08/19 10:44:49;;;;;;;17.95;14.18;;;29.60;99.90;;;;;;4989041;28;20258;-83
2022/08/19 10:47:17;;;;;;;17.40;12.15;;;29.40;99.90;;;;;;4966397;28;20231;-81
2022/08/19 10:56:55;;;;;;;18.05;12.07;;;29.30;99.80;;;;;;4907481;29;20583;-81
2022/08/19 11:00:08;;;;;;;24.00;16.08;;;29.20;99.50;;;;;;4884266;29;20667;-81
2022/08/19 11:03:00;;;;;;;20.83;15.30;;;29.20;99.90;;;;;;4886446;29;20213;-80
2022/08/19 11:06:26;;;;;;;19.88;14.90;;;29.20;99.90;;;;;;4893299;29;20229;-80
2022/08/19 11:08:55;;;;;;;18.00;13.15;;;29.40;99.90;;;;;;4860007;29;20896;-82
2022/08/19 11:11:22;;;;;;;20.60;15.27;;;29.40;99.90;;;;;;4894930;29;20730;-81
2022/08/19 11:17:16;;;;;;;19.00;14.38;;;29.50;99.90;;;;;;4903692;29;20433;-82
2022/08/19 11:19:57;;;;;;;17.23;13.45;;;29.50;99.90;;;;;;4894203;29;20245;-80
2022/08/19 11:22:40;;;;;;;16.08;12.48;;;29.60;99.90;;;;;;4974945;23;20223;-81
2022/08/19 11:29:15;;;;;;;15.45;11.55;;;29.30;99.90;;;;;;4961750;28;20214;-82
2022/08/19 11:36:34;;;;;;;13.35;10.60;;;29.30;99.90;;;;;;4888662;29;20250;-82
2022/08/19 11:39:04;;;;;;;13.75;9.52;;;29.40;99.60;;;;;;4893596;29;20688;-80
2022/08/19 11:41:31;;;;;;;14.85;11.25;;;29.40;99.40;;;;;;4911829;29;20222;-79
2022/08/19 11:43:57;;;;;;;15.73;10.95;;;29.30;99.90;;;;;;4896935;29;20285;-80
2022/08/19 11:46:27;;;;;;;16.10;11.30;;;29.30;99.90;;;;;;4886478;29;20286;-79
2022/08/19 11:48:54;;;;;;;15.70;12.32;;;29.30;99.70;;;;;;4903324;29;20218;-80
2022/08/19 11:51:26;;;;;;;15.68;11.50;;;29.50;99.30;;;;;;4891173;29;20711;-81
2022/08/19 11:53:55;;;;;;;15.35;11.82;;;29.70;99.10;;;;;;4893047;29;20225;-80
2022/08/19 11:56:24;;;;;;;16.10;13.32;;;30.00;99.60;;;;;;4904011;29;20210;-81
2022/08/19 11:58:52;;;;;;;19.20;14.80;;;30.20;99.40;;;;;;4890497;29;20239;-80
2022/08/19 12:01:21;;;;;;;17.52;13.30;;;30.10;99.70;;;;;;4875040;29;20535;-79
2022/08/19 12:03:50;;;;;;;13.00;10.98;;;30.30;99.50;;;;;;4900724;29;20238;-81
2022/08/19 12:06:25;;;;;;;15.27;11.88;;;30.40;99.10;;;;;;4906578;28;20218;-83
2022/08/19 12:08:52;;;;;;;15.13;11.00;;;30.60;99.40;;;;;;4952434;28;20220;-81
2022/08/19 12:11:19;;;;;;;11.75;9.35;;;30.80;99.70;;;;;;4969875;28;20224;-80
2022/08/19 12:13:46;;;;;;;12.68;9.50;;;30.70;98.40;;;;;;4970323;28;20208;-81
2022/08/19 12:16:32;;;;;;;12.00;8.63;;;30.80;98.40;;;;;;4951987;28;20267;-81
2022/08/19 12:19:33;;;;;;;14.30;9.35;;;30.90;97.70;;;;;;4965062;28;20207;-79
2022/08/19 12:22:40;;;;;;;13.35;10.48;;;31.00;97.40;;;;;;4947060;28;20227;-82
2022/08/19 12:25:42;;;;;;;;;;;;;;;;;;;;;
2022/08/19 12:28:45;;;;;;;14.52;10.77;;;30.80;98.30;;;;;;4949916;28;20236;-80
2022/08/19 12:32:27;;;;;;;16.02;10.95;;;30.90;98.10;;;;;;4949732;29;20199;-81
2022/08/19 12:35:19;;;;;;;14.68;10.30;;;30.90;98.00;;;;;;4917354;28;20244;-81
2022/08/19 12:37:48;;;;;;;14.07;10.35;;;30.90;97.60;;;;;;4923626;29;20216;-81
2022/08/19 12:40:22;;;;;;;10.60;8.48;;;30.40;97.10;;;;;;4930890;29;20989;-79
2022/08/19 12:42:52;;;;;;;10.80;7.82;;;30.10;97.90;;;;;;4915549;29;20217;-79
2022/08/19 12:45:19;;;;;;;9.07;7.60;;;30.10;97.90;;;;;;4915328;29;20704;-81
2022/08/19 12:47:47;;;;;;;9.77;6.75;;;30.30;97.40;;;;;;4931753;29;20237;-82
2022/08/19 12:50:15;;;;;;;10.60;8.80;;;30.50;97.20;;;;;;4940065;28;20221;-80
2022/08/19 12:52:42;;;;;;;10.30;9.00;;;30.70;97.40;;;;;;4916097;29;20217;-81
2022/08/19 12:55:10;;;;;;;12.85;9.40;;;30.90;97.30;;;;;;4930608;29;20236;-80
2022/08/19 12:57:37;;;;;;;14.90;10.10;;;31.00;96.90;;;;;;4930231;29;20209;-81
2022/08/19 13:00:12;;;;;;;12.07;8.82;;;31.10;96.40;;;;;;4929447;29;20597;-81
2022/08/19 13:02:41;;;;;;;11.85;10.00;;;31.20;96.30;;;;;;4952595;28;20215;-79
2022/08/19 13:05:10;;;;;;;11.35;8.10;;;31.30;96.00;;;;;;4979969;28;20676;-79
2022/08/19 13:07:40;;;;;;;11.70;7.78;;;31.30;95.90;;;;;;4980528;28;20259;-80
2022/08/19 13:10:09;;;;;;;9.82;8.05;;;31.10;95.60;;;;;;4970997;28;20647;-79
2022/08/19 13:12:36;;;;;;;9.55;8.07;;;31.00;96.00;;;;;;4957692;28;20548;-80
2022/08/19 13:15:08;;;;;;;10.13;7.28;;;31.20;95.80;;;;;;4953902;28;20302;-80
2022/08/19 13:17:41;;;;;;;8.48;7.57;;;31.40;95.60;;;;;;4953937;28;20664;-81
2022/08/19 13:20:10;;;;;;;10.93;8.23;;;31.60;95.20;;;;;;4969311;28;20207;-80
2022/08/19 13:22:38;;;;;;;10.90;7.60;;;31.50;94.70;;;;;;4957183;28;20593;-81
2022/08/19 13:25:06;;;;;;;9.77;8.02;;;31.60;95.00;;;;;;4964909;28;20614;-81
2022/08/19 13:27:34;;;;;;;10.95;8.25;;;31.80;95.30;;;;;;4960421;28;20233;-80
2022/08/19 13:35:33;;;;;;;11.35;8.63;;;31.50;94.90;;;;;;4971137;28;20587;-81
2022/08/19 13:38:04;;;;;;;10.95;9.05;;;31.30;94.80;;;;;;4968980;28;20216;-81
2022/08/19 13:40:38;;;;;;;13.73;8.98;;;31.30;95.20;;;;;;4973251;28;20291;-79
2022/08/19 13:43:09;;;;;;;8.95;8.05;;;31.20;95.20;;;;;;4970202;28;20243;-81
2022/08/19 13:45:51;;;;;;;10.65;8.82;;;31.20;95.10;;;;;;4970124;28;20216;-81
2022/08/19 13:48:18;;;;;;;9.77;8.45;;;31.20;95.10;;;;;;4970112;28;20610;-82
2022/08/19 13:50:47;;;;;;;11.77;8.95;;;31.00;95.50;;;;;;4953054;28;20680;-81
2022/08/19 13:53:14;;;;;;;11.20;9.02;;;31.00;95.60;;;;;;4970156;28;20219;-80
2022/08/19 13:55:42;;;;;;;18.05;13.82;;;31.00;95.90;;;;;;4970394;28;20224;-80
2022/08/19 13:58:10;;;;;;;20.50;15.43;;;31.00;97.30;;;;;;4969820;28;20239;-79
2022/08/19 14:00:41;;;;;;;15.45;13.85;;;30.80;99.00;;;;;;4970113;28;20626;-79
2022/08/19 14:03:09;;;;;;;14.25;12.32;;;30.60;99.90;;;;;;4969789;28;20212;-79